High gust

Not for real navigation. The accuracy of this data is not assured See disclaimer for more information



ICAO NAME COUNTRY WIND Kt GUST Kt VIS m TEMP/DEW C BARO METAR
CWME Cathedral Point Meteorological Canada 34 51 9999 0/-8 29.92 CWME 170900Z AUTO 05034G51KT M00/M08 RMK AO1 PK WND 05051/0851 T10011078
FDST 15 48 9999 24/19 29.94 FDST 170900Z AUTO 20015G48KT //// // ////// 24/19 Q1014
UGTB 33 45 9999 8/-2 30.03 UGTB 171000Z 31033G45KT 9999 FEW062 08/M02 Q1017 NOSIG
CYUA Shingle Point, Y. T. Canada 34 43 9999 -15/-18 30.14 CYUA 170900Z AUTO 21034G43KT ////SM OVC034 M15/M18 A3014
PALU Cape Lisburne, Cape Lisburne L AK United States 28 40 1600 -2/-4 29.77 PALU 170955Z AUTO 16028G40KT 110V190 1 0.5SM -FZRA BR OVC021 M02/M04 A2977 RMK AO2 PK WND 19051/0858

Show more